createdAt,value
2023-01-15T00:01:34.724Z,27.02
2023-01-15T00:03:36.238Z,24.10
2023-01-15T00:05:38.136Z,22.95
2023-01-15T00:07:39.635Z,31.10
2023-01-15T00:09:41.177Z,28.60
2023-01-15T00:11:42.954Z,30.50
2023-01-15T00:13:45.612Z,24.23
2023-01-15T00:15:47.143Z,21.55
2023-01-15T00:17:48.651Z,20.42
2023-01-15T00:19:50.172Z,21.00
2023-01-15T00:21:53.917Z,21.38
2023-01-15T00:24:14.632Z,17.33
2023-01-15T00:26:39.677Z,16.95
2023-01-15T00:28:41.653Z,20.85
2023-01-15T00:30:43.387Z,18.35
2023-01-15T00:32:45.171Z,21.60
2023-01-15T00:34:46.642Z,16.25
2023-01-15T00:36:48.274Z,13.80
2023-01-15T00:38:49.809Z,17.20
2023-01-15T00:40:53.051Z,16.35
2023-01-15T00:42:54.869Z,17.23
2023-01-15T00:44:56.467Z,15.32
2023-01-15T00:46:58.009Z,15.85
2023-01-15T00:48:59.525Z,18.63
2023-01-15T00:51:01.144Z,16.92
2023-01-15T00:53:02.666Z,14.63
2023-01-15T00:55:04.680Z,15.20
2023-01-15T00:57:06.215Z,20.75
2023-01-15T00:59:07.816Z,12.93
2023-01-15T01:01:09.598Z,13.85
2023-01-15T01:03:11.335Z,16.60
2023-01-15T01:05:12.875Z,16.52
2023-01-15T01:07:14.416Z,12.63
2023-01-15T01:09:16.893Z,16.38
2023-01-15T01:11:21.013Z,19.65
2023-01-15T01:13:22.512Z,17.73
2023-01-15T01:15:25.844Z,13.82
2023-01-15T01:17:27.524Z,21.30
2023-01-15T01:19:29.099Z,19.08
2023-01-15T01:21:31.263Z,18.85
2023-01-15T01:23:32.837Z,23.42
2023-01-15T01:25:34.430Z,16.80
2023-01-15T01:27:36.616Z,14.05
2023-01-15T01:29:38.168Z,14.88
2023-01-15T01:31:39.871Z,17.73
2023-01-15T01:33:41.409Z,17.88
2023-01-15T01:35:50.491Z,17.60
2023-01-15T01:37:52.149Z,12.00
2023-01-15T01:39:53.710Z,15.25
2023-01-15T01:41:55.258Z,12.80
2023-01-15T01:44:00.516Z,15.63
2023-01-15T01:46:02.067Z,13.15
2023-01-15T01:48:07.045Z,13.23
2023-01-15T01:50:12.127Z,12.93
2023-01-15T01:52:17.734Z,12.68
2023-01-15T01:54:22.873Z,13.88
2023-01-15T01:56:24.808Z,14.73
2023-01-15T01:58:30.843Z,16.83
2023-01-15T02:00:33.842Z,12.27
2023-01-15T02:02:35.755Z,11.13
2023-01-15T02:04:37.715Z,11.82
2023-01-15T02:06:42.533Z,16.05
2023-01-15T02:08:44.275Z,16.45
2023-01-15T02:10:51.867Z,13.80
2023-01-15T02:13:16.333Z,15.48
2023-01-15T02:15:26.167Z,12.20
2023-01-15T02:18:02.234Z,15.88
2023-01-15T02:20:40.776Z,14.27
2023-01-15T02:22:59.891Z,15.45
2023-01-15T02:25:13.586Z,15.88
2023-01-15T02:27:18.143Z,17.55
2023-01-15T02:29:38.538Z,15.98
2023-01-15T02:31:48.077Z,17.52
2023-01-15T02:33:51.642Z,14.65
2023-01-15T02:36:01.097Z,15.38
2023-01-15T02:38:07.960Z,17.13
2023-01-15T02:40:11.897Z,15.73
2023-01-15T02:42:14.809Z,14.40
2023-01-15T02:44:20.335Z,15.20
2023-01-15T02:46:26.955Z,15.52
2023-01-15T02:48:32.961Z,13.50
2023-01-15T02:50:39.767Z,13.05
2023-01-15T02:52:49.443Z,15.82
2023-01-15T02:56:58.758Z,12.13
2023-01-15T02:59:06.558Z,13.95
2023-01-15T03:01:19.517Z,12.63
2023-01-15T03:03:34.671Z,11.50
2023-01-15T03:05:43.782Z,11.25
2023-01-15T03:07:50.110Z,9.60
2023-01-15T03:09:53.380Z,9.70
2023-01-15T03:12:07.393Z,8.35
2023-01-15T03:14:27.554Z,8.25
2023-01-15T03:16:40.529Z,5.28
2023-01-15T03:18:51.999Z,6.45
2023-01-15T03:20:59.402Z,5.68
2023-01-15T03:23:10.426Z,6.72
2023-01-15T03:25:21.071Z,6.63
2023-01-15T03:27:23.180Z,7.13
2023-01-15T03:29:28.043Z,6.05
2023-01-15T03:31:30.001Z,5.88
2023-01-15T03:33:31.645Z,5.00
2023-01-15T03:35:45.756Z,4.85
2023-01-15T03:37:47.319Z,9.07
2023-01-15T03:39:49.441Z,6.50
2023-01-15T03:42:02.291Z,6.50
2023-01-15T03:44:13.172Z,5.93
2023-01-15T03:46:37.594Z,7.65
2023-01-15T03:48:48.984Z,9.48
2023-01-15T03:50:56.439Z,6.75
2023-01-15T03:53:15.974Z,4.78
2023-01-15T03:55:19.830Z,4.57
2023-01-15T03:57:57.260Z,5.80
2023-01-15T04:00:02.753Z,5.53
2023-01-15T04:02:08.323Z,6.18
2023-01-15T04:04:11.697Z,3.38
2023-01-15T04:06:13.245Z,4.32
2023-01-15T04:08:17.856Z,5.68
2023-01-15T04:10:19.710Z,5.10
2023-01-15T04:12:21.275Z,7.50
2023-01-15T04:14:22.821Z,8.23
2023-01-15T04:16:30.465Z,4.55
2023-01-15T04:18:32.038Z,5.07
2023-01-15T04:20:33.569Z,4.18
2023-01-15T04:22:36.236Z,5.63
2023-01-15T04:24:38.640Z,5.20
2023-01-15T04:26:40.167Z,4.28
2023-01-15T04:28:42.087Z,3.20
2023-01-15T04:30:44.249Z,8.40
2023-01-15T04:32:49.146Z,4.30
2023-01-15T04:34:50.866Z,8.55
2023-01-15T04:36:52.584Z,6.68
2023-01-15T04:38:54.755Z,10.73
2023-01-15T04:41:19.037Z,8.70
2023-01-15T04:43:38.873Z,8.75
2023-01-15T04:47:41.880Z,15.43
2023-01-15T04:49:43.430Z,22.25
2023-01-15T04:51:45.834Z,16.23
2023-01-15T04:53:47.461Z,8.43
2023-01-15T04:55:49.066Z,18.05
2023-01-15T04:57:50.636Z,6.10
2023-01-15T04:59:52.145Z,8.05
2023-01-15T05:02:03.708Z,4.95
2023-01-15T05:04:07.489Z,6.55
2023-01-15T05:06:09.521Z,7.25
2023-01-15T05:08:11.164Z,3.25
2023-01-15T05:10:12.689Z,3.90
2023-01-15T05:12:14.232Z,7.03
2023-01-15T05:14:15.735Z,4.50
2023-01-15T05:16:20.596Z,4.65
2023-01-15T05:18:22.108Z,6.15
2023-01-15T05:20:23.674Z,4.35
2023-01-15T05:22:25.248Z,5.43
2023-01-15T05:24:26.762Z,4.32
2023-01-15T05:26:30.617Z,3.15
2023-01-15T05:28:32.188Z,4.47
2023-01-15T05:30:33.708Z,5.07
2023-01-15T05:32:35.281Z,5.32
2023-01-15T05:34:36.799Z,7.28
2023-01-15T05:36:38.386Z,5.80
2023-01-15T05:38:40.385Z,3.95
2023-01-15T05:40:41.906Z,3.78
2023-01-15T05:42:43.381Z,4.03
2023-01-15T05:44:44.921Z,6.13
2023-01-15T05:46:47.741Z,7.13
2023-01-15T05:48:49.658Z,6.38
2023-01-15T05:50:51.149Z,4.50
2023-01-15T05:52:52.660Z,8.02
2023-01-15T05:54:54.168Z,4.65
2023-01-15T05:56:55.744Z,3.92
2023-01-15T05:58:57.403Z,10.48
2023-01-15T06:00:59.035Z,7.35
2023-01-15T06:03:00.686Z,5.22
2023-01-15T06:05:02.476Z,5.43
2023-01-15T06:07:04.357Z,6.68
2023-01-15T06:09:06.507Z,7.30
2023-01-15T06:11:08.268Z,5.80
2023-01-15T06:13:09.784Z,5.20
2023-01-15T06:15:12.289Z,6.40
2023-01-15T06:17:15.098Z,4.93
2023-01-15T06:19:16.911Z,7.53
2023-01-15T06:21:18.901Z,5.93
2023-01-15T06:23:20.713Z,5.05
2023-01-15T06:25:22.295Z,4.60
2023-01-15T06:27:23.783Z,5.28
2023-01-15T06:29:25.378Z,5.05
2023-01-15T06:31:27.173Z,3.63
2023-01-15T06:33:28.814Z,5.00
2023-01-15T06:35:30.371Z,8.13
2023-01-15T06:37:31.936Z,9.25
2023-01-15T06:39:33.476Z,7.90
2023-01-15T06:41:53.540Z,5.35
2023-01-15T06:44:13.473Z,8.55
2023-01-15T06:46:35.352Z,7.18
2023-01-15T06:48:36.881Z,8.90
2023-01-15T06:50:38.483Z,5.88
2023-01-15T06:52:40.094Z,4.63
2023-01-15T06:54:41.751Z,27.33
2023-01-15T06:56:43.264Z,9.65
2023-01-15T06:58:44.813Z,8.27
2023-01-15T07:00:53.668Z,5.28
2023-01-15T07:02:55.207Z,6.53
2023-01-15T07:04:56.761Z,8.10
2023-01-15T07:06:58.353Z,8.32
2023-01-15T07:09:00.227Z,6.88
2023-01-15T07:11:03.713Z,9.02
2023-01-15T07:13:05.215Z,8.70
2023-01-15T07:15:07.215Z,6.72
2023-01-15T07:17:09.408Z,10.35
2023-01-15T07:19:11.315Z,8.35
2023-01-15T07:21:12.868Z,9.18
2023-01-15T07:23:16.668Z,5.25
2023-01-15T07:25:19.086Z,7.15
2023-01-15T07:27:20.623Z,8.07
2023-01-15T07:29:23.400Z,10.90
2023-01-15T07:31:25.068Z,11.80
2023-01-15T07:33:26.619Z,8.07
2023-01-15T07:35:28.219Z,6.28
2023-01-15T07:37:29.801Z,5.68
2023-01-15T07:39:31.838Z,6.13
2023-01-15T07:41:52.497Z,5.47
2023-01-15T07:44:12.664Z,6.43
2023-01-15T07:46:46.433Z,8.00
2023-01-15T07:49:06.234Z,5.50
2023-01-15T07:53:09.115Z,5.45
2023-01-15T07:55:13.304Z,5.30
2023-01-15T07:57:18.166Z,9.30
2023-01-15T07:59:20.292Z,6.28
2023-01-15T08:01:21.907Z,7.40
2023-01-15T08:03:23.519Z,9.50
2023-01-15T08:05:25.162Z,6.05
2023-01-15T08:07:26.938Z,9.63
2023-01-15T08:09:28.924Z,9.85
2023-01-15T08:11:49.522Z,11.70
2023-01-15T08:14:09.449Z,8.55
2023-01-15T08:16:11.423Z,20.75
2023-01-15T08:18:12.984Z,22.33
2023-01-15T08:20:17.283Z,8.05
2023-01-15T08:22:18.846Z,7.85
2023-01-15T08:24:20.499Z,8.88
2023-01-15T08:26:22.142Z,7.88
2023-01-15T08:28:23.697Z,11.82
2023-01-15T08:30:25.687Z,6.38
2023-01-15T08:32:27.245Z,6.32
2023-01-15T08:34:28.828Z,8.25
2023-01-15T08:36:30.364Z,8.77
2023-01-15T08:38:31.930Z,10.32
2023-01-15T08:40:36.293Z,5.47
2023-01-15T08:42:38.572Z,6.60
2023-01-15T08:44:40.105Z,11.15
2023-01-15T08:46:41.704Z,9.20
2023-01-15T08:48:43.269Z,11.75
2023-01-15T08:50:45.481Z,8.02
2023-01-15T08:52:47.123Z,6.75
2023-01-15T08:54:48.658Z,5.55
2023-01-15T08:56:50.593Z,6.03
2023-01-15T08:58:52.141Z,11.23
2023-01-15T09:00:53.743Z,7.85
2023-01-15T09:02:55.395Z,10.50
2023-01-15T09:04:57.071Z,7.07
2023-01-15T09:06:58.721Z,8.25
2023-01-15T09:09:00.561Z,7.75
2023-01-15T09:11:04.154Z,7.78
2023-01-15T09:13:05.731Z,7.53
2023-01-15T09:15:07.699Z,6.60
2023-01-15T09:17:09.412Z,5.20
2023-01-15T09:19:11.206Z,7.63
2023-01-15T09:21:12.734Z,7.18
2023-01-15T09:23:15.104Z,6.63
2023-01-15T09:25:19.519Z,7.80
2023-01-15T09:27:21.172Z,5.10
2023-01-15T09:29:22.804Z,6.85
2023-01-15T09:31:24.560Z,7.50
2023-01-15T09:33:26.089Z,6.18
2023-01-15T09:35:27.591Z,6.70
2023-01-15T09:37:29.444Z,6.78
2023-01-15T09:39:31.628Z,7.45
2023-01-15T09:42:08.488Z,8.82
2023-01-15T09:44:28.449Z,11.43
2023-01-15T09:48:45.664Z,5.57
2023-01-15T09:51:32.231Z,5.57
2023-01-15T09:53:44.478Z,6.53
2023-01-15T09:55:48.784Z,6.60
2023-01-15T09:57:54.612Z,8.43
2023-01-15T10:00:05.367Z,7.63
2023-01-15T10:02:17.660Z,10.82
2023-01-15T10:04:38.068Z,6.45
2023-01-15T10:06:48.545Z,10.45
2023-01-15T10:08:51.308Z,6.60
2023-01-15T10:11:02.843Z,7.13
2023-01-15T10:13:14.765Z,6.63
2023-01-15T10:15:30.277Z,12.13
2023-01-15T10:17:41.488Z,7.63
2023-01-15T10:19:44.867Z,7.15
2023-01-15T10:21:55.521Z,7.30
2023-01-15T10:24:02.944Z,8.98
2023-01-15T10:26:16.630Z,9.02
2023-01-15T10:28:28.368Z,15.48
2023-01-15T10:30:43.352Z,18.67
2023-01-15T10:33:02.111Z,7.32
2023-01-15T10:35:32.372Z,9.95
2023-01-15T10:37:42.120Z,4.90
2023-01-15T10:40:01.425Z,8.27
2023-01-15T10:42:41.229Z,10.68
2023-01-15T10:45:21.132Z,8.48
2023-01-15T10:49:34.509Z,6.30
2023-01-15T10:52:06.531Z,8.45
2023-01-15T10:54:12.771Z,9.05
2023-01-15T10:56:33.020Z,8.70
2023-01-15T10:58:39.513Z,10.75
2023-01-15T11:00:46.695Z,7.22
2023-01-15T11:03:11.890Z,11.32
2023-01-15T11:05:22.499Z,10.52
2023-01-15T11:07:54.122Z,11.20
2023-01-15T11:10:05.140Z,27.13
2023-01-15T11:12:23.150Z,32.50
2023-01-15T11:14:57.299Z,23.17
2023-01-15T11:17:08.118Z,7.63
2023-01-15T11:19:37.342Z,14.40
2023-01-15T11:21:42.408Z,8.82
2023-01-15T11:23:44.352Z,9.68
2023-01-15T11:26:06.172Z,15.45
2023-01-15T11:28:09.902Z,13.10
2023-01-15T11:30:34.579Z,10.48
2023-01-15T11:32:37.882Z,8.55
2023-01-15T11:34:40.336Z,10.23
2023-01-15T11:36:42.395Z,21.63
2023-01-15T11:38:49.951Z,7.45
2023-01-15T11:40:54.034Z,16.67
2023-01-15T11:43:13.851Z,9.35
2023-01-15T11:47:55.522Z,6.50
2023-01-15T11:50:28.729Z,8.35
2023-01-15T11:52:40.123Z,6.55
2023-01-15T11:55:04.319Z,9.85
2023-01-15T11:57:12.175Z,7.93
2023-01-15T11:59:36.538Z,6.13
2023-01-15T12:01:54.645Z,7.13
2023-01-15T12:03:57.788Z,7.13
2023-01-15T12:06:11.739Z,5.72
2023-01-15T12:08:44.286Z,9.45
2023-01-15T12:11:21.046Z,21.65
2023-01-15T12:13:36.159Z,7.72
2023-01-15T12:15:51.447Z,6.03
2023-01-15T12:18:00.180Z,9.98
2023-01-15T12:20:26.893Z,8.85
2023-01-15T12:22:43.739Z,7.35
2023-01-15T12:25:21.829Z,7.53
2023-01-15T12:27:44.304Z,8.93
2023-01-15T12:29:52.079Z,6.70
2023-01-15T12:32:05.177Z,12.15
2023-01-15T12:34:36.941Z,10.32
2023-01-15T12:39:03.480Z,9.13
2023-01-15T12:41:11.909Z,8.35
2023-01-15T12:43:44.763Z,9.98
2023-01-15T12:45:49.897Z,13.25
2023-01-15T12:48:12.848Z,8.43
2023-01-15T12:50:32.515Z,13.85
2023-01-15T12:52:40.529Z,11.40
2023-01-15T12:54:53.163Z,17.42
2023-01-15T12:57:03.551Z,14.30
2023-01-15T12:59:21.511Z,9.43
2023-01-15T13:01:54.235Z,14.07
2023-01-15T13:04:04.796Z,12.50
2023-01-15T13:06:09.321Z,12.40
2023-01-15T13:08:19.308Z,12.02
2023-01-15T13:10:34.650Z,11.43
2023-01-15T13:12:37.060Z,14.38
2023-01-15T13:14:38.773Z,10.48
2023-01-15T13:16:48.451Z,12.35
2023-01-15T13:18:52.904Z,10.80
2023-01-15T13:20:55.923Z,10.63
2023-01-15T13:23:08.569Z,11.48
2023-01-15T13:25:26.787Z,12.70
2023-01-15T13:27:42.442Z,26.90
2023-01-15T13:30:05.560Z,27.15
2023-01-15T13:32:20.071Z,14.80
2023-01-15T13:34:35.341Z,12.98
2023-01-15T13:36:45.549Z,10.38
2023-01-15T13:38:51.013Z,11.82
2023-01-15T13:40:56.616Z,11.00
2023-01-15T13:43:05.224Z,10.13
2023-01-15T13:45:18.984Z,12.45
2023-01-15T13:47:38.648Z,13.38
2023-01-15T13:49:56.238Z,17.30
2023-01-15T13:52:08.844Z,19.25
2023-01-15T13:54:28.613Z,26.20
2023-01-15T13:58:51.413Z,30.17
2023-01-15T14:01:09.122Z,14.90
2023-01-15T14:03:29.237Z,18.48
2023-01-15T14:05:33.700Z,13.68
2023-01-15T14:07:37.360Z,20.48
2023-01-15T14:09:38.954Z,18.67
2023-01-15T14:11:49.396Z,24.10
2023-01-15T14:14:36.981Z,28.77
2023-01-15T14:16:59.906Z,29.48
2023-01-15T14:19:08.997Z,34.53
2023-01-15T14:21:18.296Z,23.55
2023-01-15T14:23:28.945Z,22.65
2023-01-15T14:25:41.454Z,19.65
2023-01-15T14:27:56.637Z,29.33
2023-01-15T14:30:22.187Z,27.63
2023-01-15T14:32:44.578Z,19.63
2023-01-15T14:34:55.324Z,18.45
2023-01-15T14:37:15.360Z,20.30
2023-01-15T14:39:48.984Z,24.48
2023-01-15T14:42:16.411Z,53.78
2023-01-15T14:44:27.703Z,30.33
2023-01-15T14:46:37.768Z,20.08
2023-01-15T14:48:39.944Z,17.95
2023-01-15T14:50:44.057Z,17.27
2023-01-15T14:52:46.869Z,17.75
2023-01-15T14:54:48.901Z,22.80
2023-01-15T14:56:57.913Z,29.08
2023-01-15T14:59:16.436Z,39.55
2023-01-15T15:01:21.173Z,92.53
2023-01-15T15:03:34.984Z,60.65
2023-01-15T15:05:36.710Z,36.03
2023-01-15T15:07:48.394Z,21.08
2023-01-15T15:10:06.468Z,32.50
2023-01-15T15:12:26.731Z,21.75
2023-01-15T15:14:30.053Z,23.60
2023-01-15T15:16:35.859Z,22.45
2023-01-15T15:18:58.593Z,17.75
2023-01-15T15:21:08.299Z,21.20
2023-01-15T15:23:32.885Z,18.35
2023-01-15T15:25:39.614Z,20.65
2023-01-15T15:27:41.379Z,18.42
2023-01-15T15:29:43.121Z,15.30
2023-01-15T15:32:00.248Z,20.08
2023-01-15T15:34:02.172Z,21.85
2023-01-15T15:36:04.504Z,20.30
2023-01-15T15:38:06.834Z,19.67
2023-01-15T15:40:17.509Z,32.17
2023-01-15T15:42:57.025Z,26.85
2023-01-15T15:45:19.090Z,32.70
2023-01-15T15:47:41.571Z,19.58
2023-01-15T15:49:43.156Z,25.33
2023-01-15T15:51:52.955Z,21.17
2023-01-15T15:56:13.780Z,19.03
2023-01-15T15:58:24.885Z,18.73
2023-01-15T16:00:43.733Z,21.85
2023-01-15T16:02:45.406Z,17.33
2023-01-15T16:04:58.889Z,20.35
2023-01-15T16:07:00.463Z,30.88
2023-01-15T16:09:04.870Z,41.83
2023-01-15T16:11:10.534Z,30.67
2023-01-15T16:13:22.732Z,38.88
2023-01-15T16:15:29.474Z,47.25
2023-01-15T16:17:32.205Z,61.67
2023-01-15T16:19:33.894Z,47.30
2023-01-15T16:21:37.059Z,35.65
2023-01-15T16:23:38.679Z,46.13
2023-01-15T16:25:41.944Z,22.10
2023-01-15T16:27:43.514Z,19.75
2023-01-15T16:29:51.457Z,47.03
2023-01-15T16:31:56.028Z,22.33
2023-01-15T16:33:58.911Z,34.70
2023-01-15T16:36:04.894Z,36.45
2023-01-15T16:38:07.548Z,39.33
2023-01-15T16:40:21.497Z,34.35
2023-01-15T16:42:44.565Z,48.10
2023-01-15T16:44:54.042Z,35.55
2023-01-15T16:46:59.327Z,23.88
2023-01-15T16:49:25.538Z,38.78
2023-01-15T16:51:27.175Z,25.13
2023-01-15T16:53:38.045Z,35.13
2023-01-15T16:55:41.021Z,36.55
2023-01-15T16:57:42.634Z,29.00
2023-01-15T16:59:44.108Z,27.58
2023-01-15T17:01:48.026Z,40.40
2023-01-15T17:03:49.594Z,38.15
2023-01-15T17:05:56.879Z,55.72
2023-01-15T17:07:58.544Z,35.53
2023-01-15T17:10:01.789Z,34.30
2023-01-15T17:12:26.112Z,45.47
2023-01-15T17:14:29.896Z,129.82
2023-01-15T17:16:31.499Z,59.13
2023-01-15T17:18:33.520Z,61.33
2023-01-15T17:20:36.140Z,56.63
2023-01-15T17:22:37.827Z,65.15
2023-01-15T17:24:47.503Z,66.45
2023-01-15T17:26:49.049Z,66.45
2023-01-15T17:28:50.850Z,85.95
2023-01-15T17:30:57.473Z,73.47
2023-01-15T17:33:04.633Z,21.83
2023-01-15T17:35:07.205Z,212.57
2023-01-15T17:37:08.805Z,37.97
2023-01-15T17:39:13.213Z,40.47
2023-01-15T17:41:16.410Z,39.90
2023-01-15T17:43:18.098Z,38.63
2023-01-15T17:45:25.667Z,40.97
2023-01-15T17:47:27.136Z,22.27
2023-01-15T17:49:28.718Z,36.28
2023-01-15T17:51:30.554Z,96.25
2023-01-15T17:53:32.639Z,42.50
2023-01-15T17:55:52.686Z,47.65
2023-01-15T17:58:12.585Z,38.25
2023-01-15T18:00:33.439Z,58.92
2023-01-15T18:02:54.363Z,69.47
2023-01-15T18:05:14.234Z,51.72
2023-01-15T18:07:21.524Z,41.03
2023-01-15T18:09:23.942Z,28.55
2023-01-15T18:11:25.559Z,28.02
2023-01-15T18:13:27.224Z,33.33
2023-01-15T18:15:29.568Z,41.80
2023-01-15T18:17:31.824Z,95.78
2023-01-15T18:19:33.518Z,27.45
2023-01-15T18:21:38.510Z,64.68
2023-01-15T18:23:40.227Z,53.53
2023-01-15T18:25:46.164Z,153.50
2023-01-15T18:27:47.970Z,84.13
2023-01-15T18:29:49.663Z,117.07
2023-01-15T18:31:51.201Z,51.10
2023-01-15T18:33:52.937Z,27.27
2023-01-15T18:36:10.673Z,62.97
2023-01-15T18:38:12.374Z,50.00
2023-01-15T18:40:14.382Z,45.22
2023-01-15T18:42:15.894Z,50.42
2023-01-15T18:44:38.986Z,30.20
2023-01-15T18:46:47.368Z,37.38
2023-01-15T18:48:48.921Z,22.63
2023-01-15T18:50:50.461Z,49.22
2023-01-15T18:52:52.044Z,21.13
2023-01-15T18:54:54.704Z,22.13
2023-01-15T18:56:56.198Z,19.88
2023-01-15T18:58:57.880Z,30.50
2023-01-15T19:01:07.156Z,32.88
2023-01-15T19:03:08.782Z,25.00
2023-01-15T19:05:13.144Z,45.30
2023-01-15T19:07:15.456Z,18.30
2023-01-15T19:09:18.054Z,18.25
2023-01-15T19:11:19.659Z,16.67
2023-01-15T19:13:21.167Z,28.85
2023-01-15T19:15:41.623Z,45.05
2023-01-15T19:18:01.737Z,100.35
2023-01-15T19:20:04.337Z,51.90
2023-01-15T19:22:24.963Z,23.33
2023-01-15T19:24:30.520Z,56.70
2023-01-15T19:26:32.221Z,40.42
2023-01-15T19:28:33.822Z,35.97
2023-01-15T19:30:38.265Z,51.58
2023-01-15T19:32:39.761Z,73.97
2023-01-15T19:34:41.279Z,47.65
2023-01-15T19:36:42.997Z,56.33
2023-01-15T19:38:44.605Z,54.38
2023-01-15T19:40:46.119Z,36.88
2023-01-15T19:43:06.706Z,38.17
2023-01-15T19:45:29.430Z,42.58
2023-01-15T19:47:55.983Z,78.40
2023-01-15T19:50:16.427Z,29.98
2023-01-15T19:52:36.305Z,30.40
2023-01-15T19:54:56.620Z,32.08
2023-01-15T19:56:58.215Z,30.25
2023-01-15T19:58:59.734Z,27.65
2023-01-15T20:01:02.006Z,35.97
2023-01-15T20:03:04.246Z,21.48
2023-01-15T20:05:07.508Z,23.35
2023-01-15T20:07:09.836Z,26.73
2023-01-15T20:09:11.554Z,69.57
2023-01-15T20:11:13.314Z,22.52
2023-01-15T20:13:39.598Z,20.77
2023-01-15T20:15:44.026Z,26.75
2023-01-15T20:17:45.837Z,20.30
2023-01-15T20:19:47.606Z,19.75
2023-01-15T20:21:49.327Z,18.17
2023-01-15T20:23:50.880Z,21.02
2023-01-15T20:25:53.629Z,33.20
2023-01-15T20:27:56.205Z,21.52
2023-01-15T20:29:58.244Z,24.55
2023-01-15T20:31:59.956Z,22.42
2023-01-15T20:34:02.058Z,21.77
2023-01-15T20:36:04.478Z,20.17
2023-01-15T20:38:07.193Z,17.05
2023-01-15T20:40:09.777Z,46.25
2023-01-15T20:42:30.164Z,72.32
2023-01-15T20:44:50.085Z,20.55
2023-01-15T20:46:51.867Z,17.05
2023-01-15T20:49:11.752Z,19.45
2023-01-15T20:51:13.713Z,18.23
2023-01-15T20:53:15.209Z,19.75
2023-01-15T20:55:17.858Z,21.00
2023-01-15T20:57:19.431Z,19.70
2023-01-15T20:59:20.981Z,16.17
2023-01-15T21:01:22.649Z,13.82
2023-01-15T21:03:24.280Z,15.48
2023-01-15T21:05:26.513Z,18.92
2023-01-15T21:07:28.043Z,19.33
2023-01-15T21:09:29.846Z,18.92
2023-01-15T21:11:31.527Z,18.75
2023-01-15T21:13:33.129Z,14.43
2023-01-15T21:15:34.722Z,28.42
2023-01-15T21:17:38.523Z,14.82
2023-01-15T21:19:40.068Z,43.85
2023-01-15T21:21:41.584Z,27.85
2023-01-15T21:23:45.605Z,20.98
2023-01-15T21:25:47.255Z,35.13
2023-01-15T21:27:48.797Z,47.65
2023-01-15T21:29:50.744Z,48.92
2023-01-15T21:31:53.910Z,37.97
2023-01-15T21:33:56.331Z,38.72
2023-01-15T21:35:57.903Z,43.97
2023-01-15T21:37:59.455Z,31.15
2023-01-15T21:40:00.977Z,27.65
2023-01-15T21:42:21.091Z,26.80
2023-01-15T21:44:37.975Z,27.60
2023-01-15T21:46:39.603Z,27.95
2023-01-15T21:48:41.157Z,27.48
2023-01-15T21:50:42.694Z,39.45
2023-01-15T21:52:44.210Z,34.15
2023-01-15T21:54:46.677Z,35.50
2023-01-15T21:56:48.181Z,30.85
2023-01-15T21:58:49.703Z,37.45
2023-01-15T22:00:51.346Z,33.40
2023-01-15T22:02:55.711Z,37.88
2023-01-15T22:04:57.285Z,33.03
2023-01-15T22:06:58.889Z,38.08
2023-01-15T22:09:00.418Z,35.33
2023-01-15T22:11:03.884Z,39.15
2023-01-15T22:13:05.549Z,41.53
2023-01-15T22:15:07.508Z,38.45
2023-01-15T22:17:10.886Z,40.40
2023-01-15T22:19:20.034Z,36.10
2023-01-15T22:21:21.583Z,37.80
2023-01-15T22:23:23.205Z,34.85
2023-01-15T22:25:24.811Z,32.08
2023-01-15T22:27:28.056Z,37.08
2023-01-15T22:29:32.152Z,34.42
2023-01-15T22:31:33.685Z,26.10
2023-01-15T22:33:35.211Z,31.85
2023-01-15T22:35:36.735Z,32.17
2023-01-15T22:37:38.253Z,34.78
2023-01-15T22:39:39.782Z,31.90
2023-01-15T22:42:10.631Z,31.42
2023-01-15T22:44:12.229Z,30.38
2023-01-15T22:46:14.517Z,27.55
2023-01-15T22:48:16.062Z,29.55
2023-01-15T22:50:17.811Z,29.45
2023-01-15T22:52:20.841Z,45.33
2023-01-15T22:54:23.022Z,33.28
2023-01-15T22:56:25.376Z,28.30
2023-01-15T22:58:26.977Z,25.33
2023-01-15T23:00:28.522Z,27.48
2023-01-15T23:02:48.616Z,28.52
2023-01-15T23:04:50.181Z,26.45
2023-01-15T23:06:53.127Z,25.65
2023-01-15T23:08:58.328Z,22.23
2023-01-15T23:10:59.830Z,31.23
2023-01-15T23:13:01.369Z,31.08
2023-01-15T23:15:03.045Z,42.97
2023-01-15T23:17:04.829Z,38.15
2023-01-15T23:19:06.502Z,36.53
2023-01-15T23:21:13.801Z,43.35
2023-01-15T23:23:15.359Z,30.75
2023-01-15T23:25:17.003Z,28.05
2023-01-15T23:27:18.510Z,28.15
2023-01-15T23:29:20.097Z,24.02
2023-01-15T23:31:22.188Z,30.38
2023-01-15T23:33:24.463Z,24.95
2023-01-15T23:35:26.099Z,26.50
2023-01-15T23:37:27.601Z,28.75
2023-01-15T23:39:29.294Z,28.77
2023-01-15T23:41:49.245Z,30.00
2023-01-15T23:44:09.234Z,32.20
2023-01-15T23:46:33.420Z,31.15
2023-01-15T23:48:35.003Z,34.60
2023-01-15T23:50:36.559Z,32.05
2023-01-15T23:52:38.077Z,31.23
2023-01-15T23:54:39.633Z,30.40
2023-01-15T23:56:41.134Z,30.88
2023-01-15T23:58:42.693Z,32.25
